Time;durP1;ratioP1;P1;durP2;ratioP2;P2;SDS_P1;SDS_P2;PMS_P1;PMS_P2;Temp;Humidity;BMP_temperature;BMP_pressure;BME280_temperature;BME280_humidity;BME280_pressure;Samples;Min_cycle;Max_cycle;Signal;HPM_P1;HPM_P2
2023/09/20 00:00:33;;;;;;;2.17;1.25;;;21.20;76.90;;;;;;6273908;22;20469;-86
2023/09/20 00:03:04;;;;;;;1.08;0.98;;;21.20;77.00;;;;;;6272765;22;20251;-86
2023/09/20 00:05:33;;;;;;;0.47;0.47;;;21.20;77.60;;;;;;6272054;22;20154;-86
2023/09/20 00:08:03;;;;;;;0.75;0.75;;;21.20;77.50;;;;;;6274772;22;20167;-86
2023/09/20 00:10:32;;;;;;;0.75;0.60;;;21.10;77.50;;;;;;6274669;22;20166;-86
2023/09/20 00:13:01;;;;;;;1.23;1.10;;;21.20;77.60;;;;;;6274360;22;20548;-86
2023/09/20 00:15:32;;;;;;;1.75;0.90;;;21.10;78.40;;;;;;6273836;22;20539;-86
2023/09/20 00:18:01;;;;;;;1.90;1.75;;;21.10;79.40;;;;;;6272498;22;20631;-86
2023/09/20 00:20:33;;;;;;;0.75;0.75;;;21.10;80.00;;;;;;6274224;22;20193;-86
2023/09/20 00:23:03;;;;;;;0.43;0.43;;;21.00;80.10;;;;;;6274567;22;20182;-87
2023/09/20 00:25:32;;;;;;;1.08;1.05;;;21.00;80.10;;;;;;6273238;22;20161;-86
2023/09/20 00:28:03;;;;;;;1.13;1.02;;;21.00;79.80;;;;;;6274010;22;20236;-86
2023/09/20 00:30:31;;;;;;;0.75;0.73;;;21.00;79.50;;;;;;6273184;22;20190;-87
2023/09/20 00:33:01;;;;;;;0.93;0.85;;;21.00;79.60;;;;;;6273889;22;20573;-86
2023/09/20 00:35:32;;;;;;;0.65;0.50;;;21.00;79.80;;;;;;6247873;22;20154;-87
2023/09/20 00:38:01;;;;;;;0.98;0.68;;;21.00;79.60;;;;;;6294405;22;20169;-85
2023/09/20 00:40:30;;;;;;;0.75;0.73;;;21.00;79.70;;;;;;6295770;22;20177;-86
2023/09/20 00:42:58;;;;;;;0.45;0.45;;;21.00;79.80;;;;;;6295835;22;20221;-86
2023/09/20 00:45:27;;;;;;;2.40;1.35;;;21.00;80.40;;;;;;6295846;22;20180;-86
2023/09/20 00:47:57;;;;;;;4.28;1.27;;;21.00;80.80;;;;;;6297685;22;20161;-86
2023/09/20 00:50:28;;;;;;;0.95;0.85;;;20.90;81.70;;;;;;6304708;22;20677;-86
2023/09/20 00:52:59;;;;;;;1.20;1.05;;;20.90;81.90;;;;;;6313368;22;20502;-86
2023/09/20 00:55:30;;;;;;;1.00;1.00;;;20.90;81.70;;;;;;6313393;22;20244;-86
2023/09/20 00:58:03;;;;;;;1.70;0.82;;;20.90;81.70;;;;;;6314468;22;20157;-84
2023/09/20 01:00:33;;;;;;;0.57;0.57;;;20.90;81.90;;;;;;6310681;22;20172;-86
2023/09/20 01:03:04;;;;;;;1.63;1.25;;;20.80;81.60;;;;;;6306807;22;20216;-85
2023/09/20 01:05:36;;;;;;;1.52;1.30;;;20.90;82.00;;;;;;6279621;22;20867;-86
2023/09/20 01:08:09;;;;;;;3.03;1.95;;;20.90;82.00;;;;;;6307590;22;20156;-85
2023/09/20 01:10:39;;;;;;;1.08;0.98;;;20.90;82.20;;;;;;6307511;22;20160;-86
2023/09/20 01:13:09;;;;;;;3.45;1.77;;;20.90;82.30;;;;;;6307664;22;20165;-87
2023/09/20 01:15:39;;;;;;;1.15;1.05;;;20.90;82.50;;;;;;6306901;22;20258;-86
2023/09/20 01:18:08;;;;;;;1.63;1.17;;;20.90;82.70;;;;;;6308097;22;20586;-85
2023/09/20 01:20:40;;;;;;;1.35;1.25;;;20.90;83.00;;;;;;6307038;22;20173;-87
2023/09/20 01:23:10;;;;;;;1.70;1.40;;;20.90;83.10;;;;;;6306344;22;20260;-87
2023/09/20 01:25:39;;;;;;;0.68;0.68;;;20.90;83.30;;;;;;6306624;22;20533;-83
2023/09/20 01:28:10;;;;;;;2.25;1.90;;;20.90;83.20;;;;;;6308241;22;20191;-85
2023/09/20 01:30:41;;;;;;;2.00;1.35;;;20.90;83.50;;;;;;6306692;22;20161;-84
2023/09/20 01:33:13;;;;;;;4.32;1.38;;;20.90;83.20;;;;;;6281506;22;20157;-84
2023/09/20 01:35:45;;;;;;;2.15;1.17;;;20.90;83.50;;;;;;6280359;22;20184;-84
2023/09/20 01:38:15;;;;;;;1.70;1.27;;;20.90;83.60;;;;;;6306717;22;20468;-85
2023/09/20 01:40:46;;;;;;;0.98;0.80;;;20.90;83.60;;;;;;6279878;22;20165;-84
2023/09/20 01:43:15;;;;;;;0.70;0.70;;;20.90;83.50;;;;;;6307224;22;20275;-85
2023/09/20 01:45:44;;;;;;;1.63;0.80;;;20.90;84.20;;;;;;6306661;22;20224;-85
2023/09/20 01:48:16;;;;;;;0.75;0.75;;;20.90;83.50;;;;;;6307617;22;20171;-85
2023/09/20 01:50:47;;;;;;;1.35;1.10;;;20.90;83.80;;;;;;6305542;22;20193;-84
2023/09/20 01:53:17;;;;;;;0.70;0.57;;;20.80;83.60;;;;;;6307018;22;20199;-85
2023/09/20 01:55:47;;;;;;;0.85;0.85;;;20.80;83.80;;;;;;6306254;22;20153;-84
2023/09/20 01:58:16;;;;;;;0.55;0.55;;;20.80;83.80;;;;;;6306346;22;20619;-84
2023/09/20 02:00:50;;;;;;;2.88;1.67;;;20.80;84.20;;;;;;6305690;22;20248;-88
2023/09/20 02:03:19;;;;;;;0.63;0.63;;;20.80;84.00;;;;;;6307801;22;20162;-87
2023/09/20 02:05:50;;;;;;;0.82;0.70;;;20.80;84.10;;;;;;6305258;22;20652;-86
2023/09/20 02:08:20;;;;;;;1.80;1.58;;;20.80;84.30;;;;;;6306329;22;20618;-86
2023/09/20 02:10:49;;;;;;;1.27;1.02;;;20.70;84.10;;;;;;6304555;22;20610;-86
2023/09/20 02:13:19;;;;;;;2.17;1.13;;;20.80;84.10;;;;;;6306212;22;20165;-86
2023/09/20 02:15:47;;;;;;;2.35;0.73;;;20.70;84.10;;;;;;6305723;22;20231;-87
2023/09/20 02:18:22;;;;;;;2.22;1.00;;;20.80;84.00;;;;;;6255488;22;20165;-85
2023/09/20 02:20:51;;;;;;;0.73;0.73;;;20.80;83.90;;;;;;6280258;22;20606;-86
2023/09/20 02:23:21;;;;;;;1.85;1.15;;;20.80;83.70;;;;;;6306817;22;20196;-86
2023/09/20 02:25:54;;;;;;;0.60;0.60;;;20.80;83.90;;;;;;6304107;22;20165;-85
2023/09/20 02:28:23;;;;;;;3.55;1.55;;;20.70;83.80;;;;;;6306941;22;20203;-87
2023/09/20 02:30:52;;;;;;;1.40;1.30;;;20.70;83.90;;;;;;6304998;22;20161;-87
2023/09/20 02:33:21;;;;;;;1.63;1.25;;;20.70;84.10;;;;;;6307404;22;20165;-86
2023/09/20 02:35:50;;;;;;;2.45;1.50;;;20.70;84.20;;;;;;6305555;22;20161;-87
2023/09/20 02:38:21;;;;;;;0.75;0.60;;;20.70;84.10;;;;;;6306911;22;20161;-86
2023/09/20 02:40:50;;;;;;;1.58;1.20;;;20.70;84.20;;;;;;6305557;22;20215;-87
2023/09/20 02:43:18;;;;;;;1.38;1.23;;;20.70;84.10;;;;;;6305323;22;20192;-85
2023/09/20 02:45:47;;;;;;;1.45;1.35;;;20.70;84.20;;;;;;6305987;22;20276;-86
2023/09/20 02:48:17;;;;;;;0.50;0.50;;;20.70;84.20;;;;;;6307223;22;20173;-87
2023/09/20 02:50:50;;;;;;;0.82;0.82;;;20.70;83.90;;;;;;6305123;22;20725;-85
2023/09/20 02:53:20;;;;;;;1.23;1.13;;;20.70;84.10;;;;;;6305625;22;20463;-85
2023/09/20 02:55:50;;;;;;;1.00;0.90;;;20.70;84.10;;;;;;6305900;22;20630;-86
2023/09/20 02:58:21;;;;;;;3.05;1.00;;;20.60;84.10;;;;;;6305188;22;20490;-86
2023/09/20 03:00:50;;;;;;;0.82;0.82;;;20.70;84.20;;;;;;6304939;22;20183;-87
2023/09/20 03:03:19;;;;;;;1.02;0.68;;;20.70;84.20;;;;;;6253296;22;20161;-85
2023/09/20 03:05:49;;;;;;;2.65;1.05;;;20.60;84.10;;;;;;6302635;22;20216;-85
2023/09/20 03:08:17;;;;;;;0.75;0.75;;;20.60;84.20;;;;;;6305574;22;20248;-85
2023/09/20 03:10:53;;;;;;;0.63;0.50;;;20.60;84.50;;;;;;6303955;22;20607;-87
2023/09/20 03:13:22;;;;;;;3.05;1.00;;;20.60;84.80;;;;;;6304696;22;20161;-86
2023/09/20 03:15:54;;;;;;;0.75;0.45;;;20.60;84.80;;;;;;6304849;22;20306;-87
2023/09/20 03:18:23;;;;;;;0.95;0.85;;;20.60;84.50;;;;;;6307529;22;20164;-86
2023/09/20 03:20:53;;;;;;;0.43;0.40;;;20.60;84.40;;;;;;6304873;22;20210;-84
2023/09/20 03:23:22;;;;;;;1.77;1.23;;;20.60;84.40;;;;;;6305104;22;20169;-85
2023/09/20 03:25:53;;;;;;;0.97;0.70;;;20.60;84.70;;;;;;6305046;22;20196;-87
2023/09/20 03:28:26;;;;;;;2.88;1.65;;;20.60;84.60;;;;;;6306015;22;20168;-87
2023/09/20 03:30:56;;;;;;;0.98;0.90;;;20.60;84.50;;;;;;6305606;22;20165;-86
2023/09/20 03:33:25;;;;;;;0.70;0.70;;;20.60;84.40;;;;;;6305915;22;20172;-87
2023/09/20 03:35:54;;;;;;;1.00;0.82;;;20.50;84.30;;;;;;6278369;22;20656;-86
2023/09/20 03:38:22;;;;;;;1.85;0.82;;;20.60;84.30;;;;;;6306258;22;20244;-87
2023/09/20 03:40:53;;;;;;;1.90;0.98;;;20.60;84.40;;;;;;6304769;22;20165;-87
2023/09/20 03:43:21;;;;;;;0.77;0.73;;;20.60;84.50;;;;;;6305948;22;20480;-86
2023/09/20 03:45:52;;;;;;;5.32;1.05;;;20.60;84.40;;;;;;6304425;22;20205;-86
2023/09/20 03:48:21;;;;;;;1.50;1.13;;;20.60;84.50;;;;;;6306258;22;20496;-84
2023/09/20 03:50:49;;;;;;;0.93;0.93;;;20.60;84.60;;;;;;6304572;22;20502;-86
2023/09/20 03:53:18;;;;;;;1.05;0.52;;;20.60;84.90;;;;;;6302416;22;20165;-86
2023/09/20 03:59:26;;;;;;;0.70;0.70;;;20.60;84.90;;;;;;6092685;23;20220;-84
2023/09/20 04:01:55;;;;;;;0.73;0.73;;;20.60;84.70;;;;;;6094860;23;20217;-84
2023/09/20 04:04:27;;;;;;;1.17;0.52;;;20.60;84.60;;;;;;6093828;23;20608;-86
2023/09/20 04:06:55;;;;;;;0.75;0.60;;;20.60;85.00;;;;;;6095423;23;20241;-86
2023/09/20 04:09:26;;;;;;;1.90;1.27;;;20.60;85.00;;;;;;6094741;23;20620;-86
2023/09/20 04:11:55;;;;;;;1.40;0.73;;;20.50;85.20;;;;;;6093793;23;20176;-85
2023/09/20 04:14:25;;;;;;;0.65;0.65;;;20.50;85.30;;;;;;6094215;23;20166;-86
2023/09/20 04:16:54;;;;;;;1.02;0.77;;;20.50;85.30;;;;;;6094077;23;20217;-85
2023/09/20 04:19:24;;;;;;;1.05;0.93;;;20.50;85.70;;;;;;6095006;23;20166;-85
2023/09/20 04:21:53;;;;;;;0.55;0.55;;;20.60;85.70;;;;;;6095250;23;20248;-84
2023/09/20 04:24:21;;;;;;;1.95;1.38;;;20.50;85.50;;;;;;6092575;23;20173;-85
2023/09/20 04:26:53;;;;;;;2.05;1.25;;;20.60;85.50;;;;;;6093399;23;20204;-87
2023/09/20 04:29:28;;;;;;;1.58;0.82;;;20.60;85.70;;;;;;6094537;23;20562;-85
2023/09/20 04:32:00;;;;;;;1.27;1.05;;;20.60;85.50;;;;;;6093154;23;20193;-86
2023/09/20 04:34:29;;;;;;;0.68;0.60;;;20.60;85.40;;;;;;6095613;23;20158;-85
2023/09/20 04:36:58;;;;;;;1.95;1.05;;;20.60;85.30;;;;;;6095845;23;20559;-83
2023/09/20 04:39:27;;;;;;;1.38;1.27;;;20.60;85.10;;;;;;6094325;23;20174;-84
2023/09/20 04:41:57;;;;;;;1.67;1.23;;;20.70;85.10;;;;;;6094693;23;20233;-84
2023/09/20 04:44:58;;;;;;;0.40;0.40;;;20.70;85.20;;;;;;6096793;23;20160;-84
2023/09/20 04:47:35;;;;;;;3.83;1.55;;;20.70;85.30;;;;;;6097154;23;20192;-85
2023/09/20 04:50:14;;;;;;;1.38;1.30;;;20.70;85.30;;;;;;6096621;23;20244;-85
2023/09/20 04:52:50;;;;;;;0.93;0.93;;;20.70;85.50;;;;;;6095755;23;20173;-85
2023/09/20 04:55:19;;;;;;;1.10;0.93;;;20.80;85.40;;;;;;6096926;23;20619;-84
2023/09/20 04:57:53;;;;;;;1.85;1.48;;;20.80;85.20;;;;;;6107721;23;20280;-85
2023/09/20 05:00:33;;;;;;;0.75;0.75;;;20.80;85.10;;;;;;6124274;23;20607;-83
2023/09/20 05:03:08;;;;;;;1.77;1.20;;;20.80;85.10;;;;;;6125812;23;20519;-89
2023/09/20 05:05:37;;;;;;;0.80;0.73;;;20.90;85.20;;;;;;6125073;23;20188;-86
2023/09/20 05:08:08;;;;;;;1.05;0.98;;;20.90;85.30;;;;;;6124228;23;20165;-84
2023/09/20 05:10:40;;;;;;;2.10;1.35;;;20.90;85.20;;;;;;6125315;23;20502;-87
2023/09/20 05:13:15;;;;;;;1.65;1.55;;;20.90;85.40;;;;;;6127280;23;20153;-89
2023/09/20 05:15:48;;;;;;;2.08;0.95;;;21.00;85.50;;;;;;6125226;23;20169;-85
2023/09/20 05:18:18;;;;;;;1.10;0.90;;;21.00;85.70;;;;;;6124935;23;20526;-83
2023/09/20 05:20:49;;;;;;;1.23;1.13;;;21.00;85.80;;;;;;6123420;23;20555;-85
2023/09/20 05:23:17;;;;;;;0.95;0.88;;;21.00;85.80;;;;;;6125667;23;20169;-86
2023/09/20 05:25:48;;;;;;;1.88;1.40;;;21.10;85.80;;;;;;6122974;23;20200;-85
2023/09/20 05:28:17;;;;;;;1.60;1.17;;;21.10;85.70;;;;;;6123925;23;20248;-86
2023/09/20 05:30:50;;;;;;;1.77;1.10;;;21.10;85.80;;;;;;6122628;23;20220;-86
2023/09/20 05:59:06;;;;;;;0.93;0.93;;;21.40;84.80;;;;;;6273771;22;20201;-86
2023/09/20 06:01:39;;;;;;;1.17;0.80;;;21.50;84.70;;;;;;6307491;22;20231;-87
2023/09/20 06:04:09;;;;;;;0.93;0.93;;;21.50;84.60;;;;;;6305365;22;20169;-85
2023/09/20 06:06:39;;;;;;;1.25;1.15;;;21.50;84.60;;;;;;6280023;22;20234;-85
2023/09/20 06:09:09;;;;;;;6.05;1.42;;;21.50;84.60;;;;;;6305604;22;20178;-86
2023/09/20 06:11:38;;;;;;;1.45;1.20;;;21.60;84.40;;;;;;6304547;22;20511;-85
2023/09/20 06:14:08;;;;;;;1.40;1.23;;;21.60;84.30;;;;;;6305692;22;20661;-88
2023/09/20 06:16:37;;;;;;;1.15;0.73;;;21.60;84.30;;;;;;6280862;22;20603;-85
2023/09/20 06:19:06;;;;;;;2.28;1.00;;;21.60;84.10;;;;;;6306792;22;20283;-86
2023/09/20 06:21:38;;;;;;;0.40;0.40;;;21.70;84.20;;;;;;6307706;22;20232;-86
2023/09/20 06:24:11;;;;;;;10.40;0.50;;;21.70;84.10;;;;;;6306782;22;20173;-85
2023/09/20 06:26:41;;;;;;;0.40;0.40;;;21.70;84.00;;;;;;6305244;22;20681;-86
2023/09/20 06:29:11;;;;;;;4.25;0.68;;;21.80;83.80;;;;;;6307081;22;20232;-85
2023/09/20 06:31:40;;;;;;;0.63;0.63;;;21.80;83.60;;;;;;6305850;22;20848;-83
2023/09/20 06:34:09;;;;;;;0.65;0.65;;;21.90;83.30;;;;;;6303035;22;20660;-86
2023/09/20 06:36:38;;;;;;;1.60;1.02;;;21.80;82.90;;;;;;6306174;22;20172;-84
2023/09/20 06:39:08;;;;;;;1.48;1.02;;;21.90;82.70;;;;;;6302937;22;20638;-84
2023/09/20 06:41:37;;;;;;;3.60;0.88;;;21.90;82.60;;;;;;6303050;22;20257;-86
2023/09/20 06:44:06;;;;;;;1.80;1.05;;;22.00;82.50;;;;;;6304435;22;20176;-85
2023/09/20 06:46:36;;;;;;;0.63;0.63;;;22.00;82.30;;;;;;6305786;22;20510;-86
2023/09/20 06:49:08;;;;;;;1.05;0.85;;;22.00;82.20;;;;;;6306691;22;20260;-85
2023/09/20 06:51:37;;;;;;;0.98;0.65;;;22.00;81.90;;;;;;6279391;22;20164;-86
2023/09/20 06:54:08;;;;;;;0.95;0.95;;;22.00;81.80;;;;;;6301608;22;20169;-85
2023/09/20 06:56:37;;;;;;;0.50;0.43;;;22.00;81.60;;;;;;6306362;22;20525;-85
2023/09/20 06:59:06;;;;;;;0.55;0.55;;;22.10;81.70;;;;;;6305925;22;20960;-84
2023/09/20 07:01:36;;;;;;;0.88;0.70;;;22.10;81.60;;;;;;6306575;22;20173;-80
2023/09/20 07:04:06;;;;;;;1.42;1.00;;;22.20;81.50;;;;;;6305505;22;20169;-84
2023/09/20 07:06:44;;;;;;;1.90;1.13;;;22.20;81.30;;;;;;6302734;22;20798;-85
2023/09/20 07:09:14;;;;;;;1.30;0.93;;;22.20;81.10;;;;;;6303313;22;20272;-85
2023/09/20 07:11:43;;;;;;;1.02;0.70;;;22.20;81.10;;;;;;6276704;22;20622;-85
2023/09/20 07:14:14;;;;;;;2.22;1.55;;;22.30;81.10;;;;;;6305517;22;20592;-86
2023/09/20 07:16:44;;;;;;;0.90;0.85;;;22.30;81.10;;;;;;6278163;22;20169;-85
2023/09/20 07:19:17;;;;;;;1.25;0.88;;;22.20;81.30;;;;;;6305576;22;20230;-84
2023/09/20 07:21:46;;;;;;;0.73;0.70;;;22.30;81.40;;;;;;6305548;22;20211;-84
2023/09/20 07:24:15;;;;;;;2.95;1.20;;;22.20;81.80;;;;;;6303225;22;20173;-85
2023/09/20 07:26:44;;;;;;;0.80;0.80;;;22.30;81.90;;;;;;6305651;22;20239;-85
2023/09/20 07:29:18;;;;;;;0.88;0.68;;;22.30;82.40;;;;;;6304993;22;20163;-86
2023/09/20 07:31:51;;;;;;;0.52;0.52;;;22.30;82.50;;;;;;6305306;22;20156;-84
2023/09/20 07:34:23;;;;;;;0.30;0.30;;;22.40;82.70;;;;;;6305717;22;20161;-84
2023/09/20 07:36:56;;;;;;;0.57;0.57;;;22.40;83.30;;;;;;6305055;22;20157;-83
2023/09/20 07:39:25;;;;;;;10.32;1.92;;;22.40;83.50;;;;;;6303358;22;20161;-82
2023/09/20 07:41:58;;;;;;;0.50;0.50;;;22.40;83.60;;;;;;6304388;22;20162;-83
2023/09/20 07:44:36;;;;;;;1.92;1.45;;;22.50;83.80;;;;;;6305314;22;20157;-85
2023/09/20 07:47:06;;;;;;;2.03;1.55;;;22.50;84.10;;;;;;6304175;22;20185;-82
2023/09/20 07:49:40;;;;;;;1.27;1.15;;;22.60;83.80;;;;;;6304485;22;20244;-83
2023/09/20 07:52:12;;;;;;;2.22;1.17;;;22.60;83.60;;;;;;6304352;22;20473;-84
2023/09/20 07:54:40;;;;;;;1.00;0.90;;;22.70;83.30;;;;;;6304533;22;20173;-85
2023/09/20 07:57:13;;;;;;;3.88;1.63;;;22.80;83.50;;;;;;6305769;22;20551;-84
2023/09/20 07:59:48;;;;;;;1.17;0.98;;;22.80;83.00;;;;;;6302598;22;20212;-84
2023/09/20 08:02:24;;;;;;;1.40;1.13;;;22.80;83.00;;;;;;6305519;22;20628;-84
2023/09/20 08:04:58;;;;;;;2.83;1.70;;;22.90;82.20;;;;;;6302402;22;20149;-82
2023/09/20 08:07:26;;;;;;;0.70;0.60;;;22.90;81.90;;;;;;6305808;22;20188;-84
2023/09/20 08:09:56;;;;;;;1.83;1.67;;;23.00;82.20;;;;;;6306252;22;20165;-84
2023/09/20 08:12:25;;;;;;;2.05;1.23;;;23.00;82.00;;;;;;6307960;22;20172;-83
2023/09/20 08:14:54;;;;;;;0.63;0.60;;;23.00;81.80;;;;;;6307136;22;20270;-84
2023/09/20 08:20:21;;;;;;;1.50;0.88;;;23.10;81.80;;;;;;6305919;22;20157;-84
2023/09/20 09:01:54;;;;;;;1.95;0.77;;;23.40;76.90;;;;;;6266961;23;20147;-83
2023/09/20 09:04:23;;;;;;;1.88;1.70;;;23.50;77.10;;;;;;6263384;23;20177;-85
2023/09/20 09:06:54;;;;;;;1.75;0.82;;;23.60;76.80;;;;;;6247472;23;20197;-84
2023/09/20 09:09:22;;;;;;;0.98;0.88;;;23.70;76.60;;;;;;6246458;23;20213;-83
2023/09/20 09:11:51;;;;;;;0.60;0.45;;;23.80;76.20;;;;;;6244588;23;20169;-85
2023/09/20 09:14:20;;;;;;;0.77;0.73;;;23.90;76.10;;;;;;6246898;23;20167;-84
2023/09/20 09:16:48;;;;;;;1.15;0.82;;;24.00;76.10;;;;;;6244867;23;20170;-86
2023/09/20 09:19:17;;;;;;;1.20;1.10;;;24.10;75.50;;;;;;6246552;23;20670;-85
2023/09/20 09:21:46;;;;;;;5.28;1.20;;;24.20;75.20;;;;;;6245936;23;20162;-86
2023/09/20 09:24:16;;;;;;;0.50;0.50;;;24.30;74.70;;;;;;6244907;23;20167;-84
2023/09/20 09:26:46;;;;;;;0.60;0.60;;;24.40;74.50;;;;;;6242810;23;20166;-83
2023/09/20 09:29:18;;;;;;;0.55;0.55;;;24.50;74.30;;;;;;6244956;23;20207;-84
2023/09/20 09:31:49;;;;;;;1.55;0.70;;;24.60;74.00;;;;;;6242227;23;20159;-84
2023/09/20 09:34:20;;;;;;;0.47;0.45;;;24.70;72.30;;;;;;6243188;23;20216;-85
2023/09/20 09:36:49;;;;;;;1.48;0.70;;;24.80;71.90;;;;;;6243378;23;20175;-82
2023/09/20 09:39:21;;;;;;;0.65;0.65;;;24.90;71.60;;;;;;6245345;23;20542;-82
2023/09/20 09:42:30;;;;;;;4.32;0.63;;;25.00;71.00;;;;;;6247085;23;20167;-91
2023/09/20 09:45:12;;;;;;;2.72;1.40;;;25.00;70.70;;;;;;6245073;23;20166;-86
2023/09/20 09:47:41;;;;;;;0.47;0.47;;;25.20;70.80;;;;;;6244994;23;20194;-86
2023/09/20 09:50:12;;;;;;;0.80;0.60;;;25.30;70.70;;;;;;6216169;23;20477;-82
2023/09/20 09:52:43;;;;;;;1.05;0.85;;;25.40;70.50;;;;;;6218197;23;20170;-81
2023/09/20 09:55:14;;;;;;;0.47;0.47;;;25.40;69.60;;;;;;6243466;23;20509;-82
2023/09/20 09:57:44;;;;;;;1.13;0.35;;;25.50;70.00;;;;;;6244383;23;20608;-83
2023/09/20 10:00:16;;;;;;;1.30;1.15;;;25.60;70.10;;;;;;6244125;23;20507;-83
2023/09/20 10:02:46;;;;;;;1.33;0.60;;;25.70;69.50;;;;;;6244747;23;20194;-82
2023/09/20 10:05:20;;;;;;;0.55;0.55;;;25.80;69.60;;;;;;6243796;23;20158;-84
2023/09/20 10:08:01;;;;;;;1.02;0.93;;;25.90;70.10;;;;;;6242902;23;20190;-83
2023/09/20 10:10:31;;;;;;;1.60;0.82;;;26.00;69.90;;;;;;6241848;23;20159;-83
2023/09/20 10:13:03;;;;;;;1.85;1.33;;;26.10;69.40;;;;;;6242795;23;20190;-83
2023/09/20 10:15:33;;;;;;;0.80;0.80;;;26.10;69.20;;;;;;6243932;23;20155;-83
2023/09/20 10:18:02;;;;;;;1.13;1.02;;;26.20;68.30;;;;;;6240610;23;20163;-82
2023/09/20 10:20:58;;;;;;;0.63;0.63;;;26.20;67.20;;;;;;6241053;23;20228;-83
2023/09/20 10:23:28;;;;;;;0.40;0.40;;;26.20;66.80;;;;;;6244182;23;20159;-83
2023/09/20 10:26:01;;;;;;;0.50;0.47;;;26.30;67.10;;;;;;6240834;23;20171;-83
2023/09/20 10:28:38;;;;;;;0.68;0.68;;;26.40;67.20;;;;;;6243775;23;20217;-84
2023/09/20 10:31:07;;;;;;;0.38;0.38;;;26.40;67.40;;;;;;6243224;23;20173;-84
2023/09/20 10:33:45;;;;;;;1.27;0.82;;;26.50;67.40;;;;;;6243592;23;20170;-85
2023/09/20 10:36:19;;;;;;;1.70;1.20;;;26.50;67.10;;;;;;6244172;23;20757;-83
2023/09/20 10:38:49;;;;;;;2.17;0.60;;;26.60;67.10;;;;;;6243349;23;20178;-83
2023/09/20 10:41:19;;;;;;;11.02;0.80;;;26.60;66.80;;;;;;6243499;23;20612;-83
2023/09/20 10:43:54;;;;;;;0.70;0.70;;;26.60;65.20;;;;;;6243527;23;20240;-82
2023/09/20 10:46:27;;;;;;;0.40;0.40;;;26.70;65.70;;;;;;6241866;23;20902;-83
2023/09/20 10:48:56;;;;;;;0.25;0.25;;;26.80;65.80;;;;;;6242209;23;20270;-83
2023/09/20 10:51:55;;;;;;;2.03;0.63;;;26.80;66.00;;;;;;6243955;23;20166;-84
2023/09/20 10:54:26;;;;;;;0.32;0.32;;;26.90;66.10;;;;;;6147851;23;20674;-84
2023/09/20 10:57:02;;;;;;;1.70;0.90;;;26.90;66.10;;;;;;6200967;23;20512;-84
2023/09/20 10:59:32;;;;;;;0.65;0.65;;;27.00;65.10;;;;;;6210865;23;20473;-84
2023/09/20 11:02:05;;;;;;;0.80;0.60;;;27.00;65.30;;;;;;6212773;23;20171;-83
2023/09/20 11:04:34;;;;;;;0.73;0.40;;;27.00;64.50;;;;;;6212227;23;20191;-83
2023/09/20 11:07:03;;;;;;;0.40;0.40;;;27.10;64.10;;;;;;6212261;23;20205;-85
2023/09/20 11:09:33;;;;;;;1.05;0.88;;;27.10;64.10;;;;;;6210728;23;20207;-85
2023/09/20 11:12:09;;;;;;;3.92;1.05;;;27.20;64.50;;;;;;6212276;23;20656;-82
2023/09/20 11:14:40;;;;;;;0.77;0.65;;;27.30;64.20;;;;;;6212885;23;20163;-85
2023/09/20 11:17:13;;;;;;;0.82;0.82;;;27.30;63.90;;;;;;6211221;23;20601;-85
2023/09/20 11:19:43;;;;;;;0.38;0.38;;;27.30;64.30;;;;;;6210015;23;20208;-86
2023/09/20 11:22:14;;;;;;;2.10;0.60;;;27.30;64.20;;;;;;6210183;23;20225;-84
2023/09/20 11:24:43;;;;;;;0.30;0.30;;;27.40;64.00;;;;;;6209728;23;20283;-85
2023/09/20 11:27:14;;;;;;;0.50;0.50;;;27.40;64.80;;;;;;6212200;23;20178;-84
2023/09/20 11:29:44;;;;;;;0.43;0.40;;;27.50;63.90;;;;;;6208657;23;20199;-85
2023/09/20 11:32:15;;;;;;;0.50;0.50;;;27.50;64.10;;;;;;6212049;23;20512;-84
2023/09/20 11:34:45;;;;;;;0.40;0.40;;;27.60;64.10;;;;;;6210154;23;20269;-85
2023/09/20 11:37:18;;;;;;;2.15;0.80;;;27.60;63.60;;;;;;6212780;23;20498;-84
2023/09/20 11:39:48;;;;;;;1.00;0.55;;;27.70;63.40;;;;;;6211360;23;20168;-85
2023/09/20 11:42:28;;;;;;;1.05;0.68;;;27.70;63.10;;;;;;6212046;23;20163;-84
2023/09/20 11:45:01;;;;;;;0.55;0.55;;;27.80;63.20;;;;;;6211564;23;20165;-83
2023/09/20 11:47:52;;;;;;;0.32;0.32;;;27.80;62.70;;;;;;6210898;23;20167;-84
2023/09/20 11:50:24;;;;;;;1.17;0.60;;;27.90;62.70;;;;;;6206227;23;20631;-84
2023/09/20 11:52:53;;;;;;;3.72;0.73;;;27.90;62.20;;;;;;6207553;23;20152;-84
2023/09/20 11:55:22;;;;;;;1.55;0.82;;;27.90;62.40;;;;;;6231048;23;20623;-84
2023/09/20 11:57:53;;;;;;;0.30;0.30;;;28.00;62.70;;;;;;6239212;23;20166;-83
2023/09/20 12:00:26;;;;;;;0.47;0.47;;;28.00;62.50;;;;;;6236324;23;20608;-86
2023/09/20 12:02:57;;;;;;;0.30;0.30;;;28.10;62.40;;;;;;6237187;23;20216;-85
2023/09/20 12:05:30;;;;;;;0.57;0.57;;;28.10;62.00;;;;;;6237429;23;20162;-84
2023/09/20 12:08:00;;;;;;;1.05;0.85;;;28.10;61.30;;;;;;6241299;23;20186;-86
2023/09/20 12:10:31;;;;;;;0.82;0.65;;;28.10;61.40;;;;;;6238010;23;20185;-86
2023/09/20 12:13:01;;;;;;;0.20;0.20;;;28.20;61.70;;;;;;6239582;23;20933;-83
2023/09/20 12:15:32;;;;;;;3.40;1.05;;;28.30;61.60;;;;;;6238876;23;20193;-84
2023/09/20 12:18:02;;;;;;;0.98;0.95;;;28.30;60.60;;;;;;6240257;23;20159;-84
2023/09/20 12:20:31;;;;;;;1.30;0.80;;;28.40;60.70;;;;;;6240131;23;20678;-83
2023/09/20 12:23:01;;;;;;;1.58;1.27;;;28.40;61.10;;;;;;6241432;23;20170;-84
2023/09/20 12:25:31;;;;;;;1.05;0.70;;;28.40;60.30;;;;;;6242597;23;20158;-84
2023/09/20 12:28:01;;;;;;;0.68;0.52;;;28.50;60.30;;;;;;6242293;23;20173;-85
2023/09/20 12:30:29;;;;;;;0.50;0.50;;;28.50;60.60;;;;;;6243154;23;20186;-84
2023/09/20 12:32:58;;;;;;;0.68;0.68;;;28.50;60.30;;;;;;6244054;23;20250;-84
2023/09/20 12:35:33;;;;;;;0.52;0.50;;;28.60;60.20;;;;;;6242182;23;20609;-84
2023/09/20 12:38:02;;;;;;;0.45;0.45;;;28.60;59.90;;;;;;6242209;23;20159;-83
2023/09/20 12:40:30;;;;;;;0.50;0.43;;;28.60;59.70;;;;;;6243453;23;20206;-85
2023/09/20 12:43:01;;;;;;;0.98;0.90;;;28.70;59.10;;;;;;6243231;23;20166;-84
2023/09/20 12:45:30;;;;;;;1.27;0.75;;;28.70;59.80;;;;;;6243676;23;20177;-84
2023/09/20 12:47:58;;;;;;;1.40;0.93;;;28.70;58.80;;;;;;6242452;23;20171;-86
2023/09/20 12:50:32;;;;;;;0.55;0.50;;;28.70;58.90;;;;;;6242714;23;20281;-84
2023/09/20 12:53:01;;;;;;;1.85;0.68;;;28.80;58.80;;;;;;6242309;23;20159;-85
2023/09/20 12:55:31;;;;;;;0.43;0.43;;;28.80;58.60;;;;;;6242572;23;20229;-84
2023/09/20 12:58:01;;;;;;;0.38;0.38;;;28.80;58.80;;;;;;6245914;23;20173;-85
2023/09/20 13:00:29;;;;;;;2.40;1.48;;;28.80;58.50;;;;;;6244885;23;20166;-84
2023/09/20 13:03:14;;;;;;;0.80;0.60;;;28.90;58.80;;;;;;6244410;23;20198;-86
2023/09/20 13:05:45;;;;;;;1.70;1.13;;;28.90;58.60;;;;;;6243722;23;20233;-86
2023/09/20 13:08:16;;;;;;;0.85;0.70;;;28.90;58.50;;;;;;6242948;23;20170;-85
2023/09/20 13:10:51;;;;;;;1.08;0.73;;;28.90;58.60;;;;;;6244479;23;20236;-85
2023/09/20 13:13:22;;;;;;;0.70;0.70;;;29.00;58.50;;;;;;6245199;23;20158;-88
2023/09/20 13:15:52;;;;;;;1.33;0.93;;;29.00;58.40;;;;;;6242602;23;20608;-86
2023/09/20 13:18:21;;;;;;;0.77;0.77;;;29.00;58.50;;;;;;6244959;23;20163;-86
2023/09/20 13:20:52;;;;;;;1.25;1.10;;;29.10;58.80;;;;;;6244730;23;20469;-85
2023/09/20 13:23:25;;;;;;;0.30;0.30;;;29.10;58.70;;;;;;6244512;23;20193;-85
2023/09/20 13:25:53;;;;;;;1.25;0.50;;;29.20;58.70;;;;;;6244235;23;20189;-84
2023/09/20 13:28:23;;;;;;;0.90;0.90;;;29.20;58.20;;;;;;6244442;23;20171;-82
2023/09/20 13:30:52;;;;;;;0.70;0.70;;;29.30;58.10;;;;;;6244778;23;20222;-85
2023/09/20 13:33:21;;;;;;;0.60;0.60;;;29.30;57.90;;;;;;6245627;23;20173;-84
2023/09/20 13:35:50;;;;;;;1.10;0.90;;;29.40;57.90;;;;;;6244164;23;20670;-84
2023/09/20 13:38:18;;;;;;;0.85;0.85;;;29.60;57.60;;;;;;6243709;23;20254;-83
2023/09/20 13:40:47;;;;;;;1.15;0.50;;;29.60;57.20;;;;;;6243540;23;20220;-84
2023/09/20 13:43:18;;;;;;;0.40;0.40;;;29.70;56.80;;;;;;6244720;23;20166;-83
2023/09/20 13:45:48;;;;;;;1.00;0.70;;;29.80;56.90;;;;;;6243856;23;20558;-84
2023/09/20 13:48:17;;;;;;;4.38;2.03;;;30.10;57.00;;;;;;6244486;23;20163;-84
2023/09/20 13:50:46;;;;;;;0.40;0.40;;;30.90;56.10;;;;;;6241186;23;20221;-85
2023/09/20 13:53:15;;;;;;;0.22;0.22;;;33.00;52.70;;;;;;6238591;23;20227;-84
2023/09/20 13:55:46;;;;;;;0.40;0.40;;;34.60;49.80;;;;;;6240012;23;20194;-84
2023/09/20 13:58:15;;;;;;;0.55;0.52;;;33.50;50.80;;;;;;6243084;23;20506;-84
2023/09/20 14:00:44;;;;;;;0.68;0.55;;;32.70;51.70;;;;;;6241706;23;20257;-84
2023/09/20 14:03:15;;;;;;;1.65;0.75;;;32.30;52.80;;;;;;6243194;23;20487;-84
2023/09/20 14:05:43;;;;;;;0.40;0.40;;;31.90;53.00;;;;;;6242868;23;20241;-84
2023/09/20 14:08:15;;;;;;;0.32;0.30;;;31.60;53.10;;;;;;6242597;23;20181;-87
2023/09/20 14:10:46;;;;;;;0.50;0.40;;;31.40;53.30;;;;;;6241530;23;20183;-84
2023/09/20 14:13:15;;;;;;;0.22;0.22;;;31.20;53.60;;;;;;6243279;23;20173;-85
2023/09/20 14:15:45;;;;;;;0.52;0.52;;;31.00;53.70;;;;;;6242576;23;20166;-82